Time;durP1;ratioP1;P1;durP2;ratioP2;P2;SDS_P1;SDS_P2;PMS_P1;PMS_P2;Temp;Humidity;BMP_temperature;BMP_pressure;BME280_temperature;BME280_humidity;BME280_pressure;Samples;Min_cycle;Max_cycle;Signal;HPM_P1;HPM_P2
2023/10/08 00:01:43;;;;;;;2.05;0.70;;;14.10;99.90;;;;;;4894622;29;20220;-75
2023/10/08 00:04:10;;;;;;;1.50;0.73;;;14.10;99.90;;;;;;4895929;29;20636;-74
2023/10/08 00:06:37;;;;;;;3.97;0.70;;;14.10;99.90;;;;;;4896061;29;20307;-74
2023/10/08 00:09:07;;;;;;;1.85;0.70;;;14.10;99.90;;;;;;4896046;29;20188;-73
2023/10/08 00:11:36;;;;;;;0.98;0.65;;;14.10;99.90;;;;;;4895964;29;20374;-73
2023/10/08 00:14:05;;;;;;;2.10;0.70;;;14.10;99.90;;;;;;4894931;29;20201;-73
2023/10/08 00:16:33;;;;;;;4.40;0.90;;;14.10;99.90;;;;;;4895383;29;20332;-74
2023/10/08 00:19:07;;;;;;;2.97;0.80;;;14.10;99.90;;;;;;4895711;29;20200;-73
2023/10/08 00:21:35;;;;;;;1.20;0.70;;;14.10;99.90;;;;;;4895960;29;20185;-74
2023/10/08 00:24:05;;;;;;;3.22;0.80;;;14.20;99.90;;;;;;4896148;29;20185;-74
2023/10/08 00:26:31;;;;;;;4.10;0.90;;;14.20;99.90;;;;;;4895431;29;20221;-74
2023/10/08 00:29:00;;;;;;;3.65;1.00;;;14.20;99.90;;;;;;4895691;29;20644;-74
2023/10/08 00:31:31;;;;;;;2.42;1.10;;;14.20;99.90;;;;;;4909982;29;20197;-74
2023/10/08 00:33:57;;;;;;;2.40;1.08;;;14.20;99.90;;;;;;4895500;29;20184;-74
2023/10/08 00:36:24;;;;;;;2.70;1.20;;;14.20;99.90;;;;;;4895981;29;20238;-73
2023/10/08 00:38:58;;;;;;;5.55;1.10;;;14.20;99.90;;;;;;4894948;29;20204;-73
2023/10/08 00:41:28;;;;;;;2.58;0.90;;;14.20;99.90;;;;;;4910560;29;20634;-73
2023/10/08 00:43:59;;;;;;;1.65;0.85;;;14.30;99.90;;;;;;4896085;29;20248;-73
2023/10/08 00:46:32;;;;;;;1.73;1.00;;;14.30;99.90;;;;;;4895648;29;20258;-73
2023/10/08 00:51:46;;;;;;;7.25;1.00;;;14.30;99.90;;;;;;4875069;29;20229;-73
2023/10/08 00:54:17;;;;;;;4.00;1.27;;;14.30;99.90;;;;;;4896675;29;20500;-73
2023/10/08 00:59:21;;;;;;;6.88;1.20;;;14.30;99.90;;;;;;4913653;29;20645;-74
2023/10/08 01:01:51;;;;;;;4.60;1.00;;;14.30;99.90;;;;;;4898384;29;20271;-74
2023/10/08 01:04:23;;;;;;;3.65;1.20;;;14.30;99.90;;;;;;4913877;29;20227;-74
2023/10/08 01:06:56;;;;;;;3.95;1.08;;;14.30;99.90;;;;;;4897402;29;20236;-74
2023/10/08 01:09:27;;;;;;;4.63;1.08;;;14.30;99.90;;;;;;4898938;29;20211;-72
2023/10/08 01:14:53;;;;;;;6.95;1.30;;;14.30;99.90;;;;;;4898656;29;20193;-74
2023/10/08 01:17:25;;;;;;;6.85;1.55;;;14.30;99.90;;;;;;4896909;29;20260;-73
2023/10/08 01:20:08;;;;;;;6.82;1.20;;;14.30;99.90;;;;;;4898948;29;20199;-73
2023/10/08 01:22:34;;;;;;;2.83;1.30;;;14.30;99.90;;;;;;4897035;29;20196;-72
2023/10/08 01:25:04;;;;;;;4.32;1.25;;;14.30;99.90;;;;;;4899109;29;20187;-72
2023/10/08 01:27:34;;;;;;;4.38;1.50;;;14.30;99.90;;;;;;4897741;29;20625;-74
2023/10/08 01:30:12;;;;;;;5.88;1.33;;;14.30;99.90;;;;;;4898128;29;20193;-73
2023/10/08 01:32:38;;;;;;;7.03;1.40;;;14.30;99.90;;;;;;4896960;29;20220;-72
2023/10/08 01:35:16;;;;;;;8.45;1.55;;;14.30;99.90;;;;;;4898549;29;20257;-73
2023/10/08 01:37:42;;;;;;;2.25;1.27;;;14.30;99.90;;;;;;4896869;29;20188;-73
2023/10/08 01:40:09;;;;;;;4.80;1.38;;;14.30;99.90;;;;;;4898834;29;20196;-74
2023/10/08 01:42:38;;;;;;;4.75;1.40;;;14.30;99.90;;;;;;4895540;29;20700;-74
2023/10/08 01:45:07;;;;;;;5.63;1.38;;;14.30;99.90;;;;;;4897198;29;20223;-74
2023/10/08 01:47:33;;;;;;;7.85;1.40;;;14.30;99.90;;;;;;4897957;29;20200;-74
2023/10/08 01:50:05;;;;;;;4.45;1.80;;;14.30;99.90;;;;;;4897323;29;20197;-73
2023/10/08 01:52:31;;;;;;;6.97;1.50;;;14.30;99.90;;;;;;4894088;29;20243;-74
2023/10/08 01:54:57;;;;;;;2.92;1.20;;;14.30;99.90;;;;;;4911218;29;20193;-74
2023/10/08 01:57:23;;;;;;;3.97;1.27;;;14.30;99.90;;;;;;4912111;29;20188;-73
2023/10/08 01:59:49;;;;;;;4.00;1.30;;;14.20;99.90;;;;;;4912317;29;20200;-74
2023/10/08 02:02:15;;;;;;;4.40;1.20;;;14.20;99.90;;;;;;4912434;29;20616;-74
2023/10/08 02:04:42;;;;;;;8.82;1.30;;;14.20;99.90;;;;;;4910233;29;20192;-74
2023/10/08 02:07:08;;;;;;;6.50;1.10;;;14.20;99.90;;;;;;4897725;29;20220;-72
2023/10/08 02:09:34;;;;;;;8.25;1.40;;;14.20;99.90;;;;;;4897435;29;20197;-74
2023/10/08 02:12:00;;;;;;;3.33;1.30;;;14.30;99.90;;;;;;4897798;29;20247;-75
2023/10/08 02:14:30;;;;;;;4.85;1.20;;;14.30;99.90;;;;;;4895359;29;20297;-73
2023/10/08 02:17:01;;;;;;;5.68;1.80;;;14.30;99.90;;;;;;4897574;29;20232;-73
2023/10/08 02:19:28;;;;;;;6.55;1.30;;;14.30;99.90;;;;;;4896805;29;20188;-72
2023/10/08 02:21:54;;;;;;;5.18;1.65;;;14.40;99.90;;;;;;4896906;29;20227;-74
2023/10/08 02:24:25;;;;;;;6.85;1.42;;;14.30;99.90;;;;;;4897336;29;20200;-74
2023/10/08 02:26:52;;;;;;;7.90;1.50;;;14.40;99.90;;;;;;4896715;29;20224;-74
2023/10/08 02:29:19;;;;;;;4.00;1.30;;;14.40;99.90;;;;;;4880030;29;20188;-76
2023/10/08 02:31:45;;;;;;;5.68;1.40;;;14.40;99.90;;;;;;4897920;29;20215;-72
2023/10/08 02:34:12;;;;;;;3.08;1.20;;;14.40;99.90;;;;;;4897284;29;20224;-73
2023/10/08 02:36:42;;;;;;;4.47;1.50;;;14.40;99.90;;;;;;4897651;29;20212;-75
2023/10/08 02:39:18;;;;;;;8.82;1.67;;;14.40;99.90;;;;;;4897258;29;20195;-73
2023/10/08 02:41:45;;;;;;;9.43;1.58;;;14.40;99.90;;;;;;4895906;29;20185;-71
2023/10/08 02:44:13;;;;;;;6.57;1.60;;;14.40;99.90;;;;;;4896149;29;20193;-73
2023/10/08 02:46:47;;;;;;;4.28;1.20;;;14.40;99.90;;;;;;4897120;29;20221;-74
2023/10/08 02:49:16;;;;;;;7.03;1.20;;;14.40;99.90;;;;;;4895560;29;20188;-72
2023/10/08 02:51:44;;;;;;;8.73;1.52;;;14.40;99.90;;;;;;4896961;29;20197;-69
2023/10/08 02:54:20;;;;;;;5.95;1.38;;;14.40;99.90;;;;;;4896664;29;20185;-69
2023/10/08 02:56:51;;;;;;;7.50;1.27;;;14.40;99.90;;;;;;4895349;29;20276;-68
2023/10/08 02:59:23;;;;;;;4.75;1.27;;;14.40;99.90;;;;;;4896645;29;20577;-70
2023/10/08 03:01:53;;;;;;;3.92;1.38;;;14.30;99.90;;;;;;4895640;29;20195;-69
2023/10/08 03:04:19;;;;;;;3.78;1.25;;;14.30;99.90;;;;;;4912174;29;20189;-69
2023/10/08 03:07:03;;;;;;;7.05;1.45;;;14.30;99.90;;;;;;4897367;29;20208;-70
2023/10/08 03:09:32;;;;;;;4.13;1.38;;;14.40;99.90;;;;;;4896207;29;20703;-69
2023/10/08 03:11:58;;;;;;;4.20;1.60;;;14.40;99.90;;;;;;4895741;29;20185;-70
2023/10/08 03:14:41;;;;;;;16.60;1.80;;;14.30;99.90;;;;;;4895764;29;20188;-70
2023/10/08 03:17:09;;;;;;;4.75;1.10;;;14.40;99.90;;;;;;4881585;29;20287;-69
2023/10/08 03:19:36;;;;;;;5.47;1.45;;;14.30;99.90;;;;;;4895997;29;20196;-70
2023/10/08 03:22:04;;;;;;;6.20;1.35;;;14.40;99.90;;;;;;4897117;29;20257;-70
2023/10/08 03:27:06;;;;;;;10.88;1.55;;;14.30;99.90;;;;;;4895299;29;20711;-70
2023/10/08 03:29:44;;;;;;;5.45;1.35;;;14.40;99.90;;;;;;4896236;29;20196;-70
2023/10/08 03:32:15;;;;;;;4.72;1.63;;;14.30;99.90;;;;;;4910736;29;20672;-70
2023/10/08 03:34:49;;;;;;;6.57;1.50;;;14.30;99.90;;;;;;4892586;29;20244;-71
2023/10/08 03:37:21;;;;;;;8.07;1.60;;;14.30;99.90;;;;;;4896349;29;20621;-69
2023/10/08 03:39:51;;;;;;;3.88;1.40;;;14.40;99.90;;;;;;4911442;29;20197;-71
2023/10/08 03:42:23;;;;;;;5.70;1.55;;;14.40;99.90;;;;;;4896852;29;20196;-70
2023/10/08 03:44:55;;;;;;;12.23;2.13;;;14.40;99.90;;;;;;4911809;29;20765;-71
2023/10/08 03:47:26;;;;;;;3.85;1.30;;;14.40;99.90;;;;;;4896180;29;20216;-70
2023/10/08 03:49:54;;;;;;;9.13;1.35;;;14.40;99.90;;;;;;4895797;29;20535;-70
2023/10/08 03:52:25;;;;;;;5.22;1.60;;;14.40;99.90;;;;;;4896707;29;20193;-70
2023/10/08 03:55:13;;;;;;;6.60;1.52;;;14.40;99.90;;;;;;4896575;29;20189;-70
2023/10/08 03:57:41;;;;;;;7.68;1.58;;;14.30;99.90;;;;;;4895448;29;20601;-70
2023/10/08 04:00:13;;;;;;;5.93;1.60;;;14.40;99.90;;;;;;4896131;29;20201;-71
2023/10/08 04:02:40;;;;;;;6.05;1.80;;;14.30;99.90;;;;;;4896652;29;20212;-71
2023/10/08 04:05:19;;;;;;;9.55;1.80;;;14.30;99.90;;;;;;4879572;29;20680;-71
2023/10/08 04:13:08;;;;;;;7.38;2.15;;;14.30;99.90;;;;;;4896490;29;20195;-69
2023/10/08 04:15:41;;;;;;;12.15;1.70;;;14.30;99.90;;;;;;4912163;29;20193;-70
2023/10/08 04:18:12;;;;;;;6.10;1.90;;;14.30;99.90;;;;;;4895716;29;20239;-69
2023/10/08 04:20:39;;;;;;;6.82;1.85;;;14.30;99.90;;;;;;4896017;29;20197;-70
2023/10/08 04:23:20;;;;;;;7.45;1.90;;;14.30;99.90;;;;;;4895068;29;20292;-67
2023/10/08 04:25:53;;;;;;;10.35;2.42;;;14.30;99.90;;;;;;4895544;29;20218;-68
2023/10/08 04:28:20;;;;;;;8.18;2.17;;;14.30;99.90;;;;;;4889873;29;20193;-69
2023/10/08 04:30:53;;;;;;;9.25;2.42;;;14.30;99.90;;;;;;4896083;29;20197;-68
2023/10/08 04:33:19;;;;;;;9.52;2.53;;;14.40;99.90;;;;;;4899670;29;20188;-69
2023/10/08 04:35:48;;;;;;;11.13;2.53;;;14.40;99.90;;;;;;4899103;29;20189;-71
2023/10/08 04:38:18;;;;;;;8.32;2.20;;;14.40;99.90;;;;;;4899050;29;20698;-72
2023/10/08 04:40:48;;;;;;;11.23;2.10;;;14.30;99.90;;;;;;4899153;29;20197;-72
2023/10/08 04:43:15;;;;;;;12.32;2.38;;;14.30;99.90;;;;;;4899627;29;20193;-72
2023/10/08 04:45:43;;;;;;;9.25;2.38;;;14.40;99.90;;;;;;4899039;29;20275;-72
2023/10/08 04:48:09;;;;;;;7.00;2.45;;;14.40;99.90;;;;;;4904338;29;20665;-71
2023/10/08 04:50:36;;;;;;;10.68;2.03;;;14.30;99.90;;;;;;4886124;29;20210;-72
2023/10/08 04:53:08;;;;;;;12.82;2.30;;;14.30;99.90;;;;;;4899740;29;20193;-72
2023/10/08 04:55:35;;;;;;;10.32;1.98;;;14.30;99.90;;;;;;4899053;29;20231;-73
2023/10/08 04:58:12;;;;;;;9.52;2.05;;;14.30;99.90;;;;;;4895866;29;20276;-72
2023/10/08 05:00:41;;;;;;;15.93;2.30;;;14.30;99.90;;;;;;4898713;29;20216;-71
2023/10/08 05:03:14;;;;;;;14.13;2.17;;;14.30;99.90;;;;;;4896789;29;20173;-73
2023/10/08 05:06:39;;;;;;;9.70;2.17;;;14.40;99.90;;;;;;4891140;29;20235;-70
2023/10/08 05:08:47;;;;;;;9.05;2.22;;;14.30;99.90;;;;;;4886313;29;20196;-70
2023/10/08 05:14:06;;;;;;;15.23;2.15;;;14.40;99.90;;;;;;4898035;29;20613;-70
2023/10/08 05:16:43;;;;;;;13.32;2.03;;;14.40;99.90;;;;;;4897905;29;20259;-70
2023/10/08 05:19:37;;;;;;;17.95;2.22;;;14.40;99.90;;;;;;4896916;29;20188;-70
2023/10/08 05:22:43;;;;;;;16.05;2.42;;;14.40;99.90;;;;;;4891102;29;20650;-69
2023/10/08 05:25:09;;;;;;;7.75;2.10;;;14.40;99.90;;;;;;4885829;29;20193;-70
2023/10/08 05:30:25;;;;;;;8.85;1.88;;;14.40;99.90;;;;;;4897360;29;20658;-71
2023/10/08 05:36:09;;;;;;;17.38;2.38;;;14.40;99.90;;;;;;4889825;29;20665;-71
2023/10/08 06:07:56;;;;;;;8.18;2.00;;;14.30;99.90;;;;;;4894614;29;20272;-71
2023/10/08 06:13:16;;;;;;;13.70;2.35;;;14.30;99.90;;;;;;4893106;29;20192;-72
2023/10/08 06:18:27;;;;;;;10.32;2.10;;;14.20;99.90;;;;;;4894791;29;20235;-73
2023/10/08 06:20:54;;;;;;;8.48;1.90;;;14.30;99.90;;;;;;4897551;29;20199;-71
2023/10/08 06:23:22;;;;;;;12.85;2.10;;;14.20;99.90;;;;;;4890340;29;20224;-70
2023/10/08 06:28:34;;;;;;;11.13;2.40;;;14.20;99.90;;;;;;4897466;29;20654;-70
2023/10/08 06:31:06;;;;;;;6.63;1.80;;;14.30;99.90;;;;;;4896143;29;20204;-71
2023/10/08 06:33:33;;;;;;;12.13;2.25;;;14.30;99.90;;;;;;4896893;29;20196;-70
2023/10/08 06:36:13;;;;;;;10.57;1.88;;;14.30;99.90;;;;;;4897096;29;20196;-70
2023/10/08 06:38:44;;;;;;;10.93;2.25;;;14.30;99.90;;;;;;4896272;29;20243;-71
2023/10/08 06:41:17;;;;;;;13.88;2.13;;;14.30;99.90;;;;;;4879975;29;20211;-71
2023/10/08 06:44:13;;;;;;;15.32;2.38;;;14.40;99.90;;;;;;4897174;29;20192;-69
2023/10/08 06:46:40;;;;;;;10.70;1.92;;;14.40;99.90;;;;;;4856327;29;20227;-69
2023/10/08 06:49:11;;;;;;;12.48;2.00;;;14.40;99.90;;;;;;4896818;29;20200;-70
2023/10/08 06:51:43;;;;;;;8.80;2.10;;;14.50;99.90;;;;;;4888212;29;20216;-77
2023/10/08 06:54:13;;;;;;;12.85;2.30;;;14.50;99.90;;;;;;4895867;29;20275;-74
2023/10/08 06:56:46;;;;;;;10.18;1.90;;;14.50;99.90;;;;;;4893698;29;20224;-74
2023/10/08 06:59:17;;;;;;;6.22;1.88;;;14.60;99.90;;;;;;4897222;29;20248;-75
2023/10/08 07:01:45;;;;;;;11.63;2.20;;;14.60;99.90;;;;;;4896898;29;20282;-76
2023/10/08 07:04:12;;;;;;;7.15;2.00;;;14.60;99.90;;;;;;4895178;29;20724;-71
2023/10/08 07:06:50;;;;;;;7.25;2.00;;;14.70;99.90;;;;;;4897090;29;20231;-75
2023/10/08 07:09:29;;;;;;;8.63;2.03;;;14.70;99.90;;;;;;4896263;29;20236;-76
2023/10/08 07:11:58;;;;;;;14.20;2.50;;;14.80;99.90;;;;;;4896956;29;20271;-76
2023/10/08 07:14:29;;;;;;;10.80;1.98;;;14.80;99.90;;;;;;4911045;29;20213;-75
2023/10/08 07:17:00;;;;;;;8.05;1.90;;;14.90;99.90;;;;;;4895388;29;20753;-74
2023/10/08 07:19:37;;;;;;;7.22;1.98;;;14.90;99.90;;;;;;4896298;29;20213;-67
2023/10/08 07:22:17;;;;;;;8.60;2.05;;;15.00;99.90;;;;;;4895309;29;20736;-76
2023/10/08 07:24:50;;;;;;;11.25;1.92;;;15.00;99.90;;;;;;4896331;29;20184;-68
2023/10/08 07:27:21;;;;;;;8.40;2.33;;;15.10;99.90;;;;;;4890896;29;20217;-81
2023/10/08 07:29:48;;;;;;;11.48;2.35;;;15.10;99.90;;;;;;4894918;29;20184;-77
2023/10/08 07:32:18;;;;;;;11.70;2.00;;;15.10;99.90;;;;;;4896414;29;20204;-77
2023/10/08 07:34:44;;;;;;;14.27;2.15;;;15.10;99.90;;;;;;4895591;29;20283;-78
2023/10/08 07:37:11;;;;;;;9.18;2.30;;;15.10;99.90;;;;;;4896593;29;20267;-76
2023/10/08 07:39:46;;;;;;;11.02;2.10;;;15.20;99.90;;;;;;4896610;29;20193;-77
2023/10/08 07:42:12;;;;;;;9.50;1.98;;;15.20;99.90;;;;;;4895868;29;20193;-77
2023/10/08 07:44:39;;;;;;;11.63;2.42;;;15.20;99.90;;;;;;4894345;29;20184;-75
2023/10/08 07:47:14;;;;;;;12.18;2.40;;;15.20;99.90;;;;;;4906761;29;20223;-77
2023/10/08 07:49:43;;;;;;;12.65;2.15;;;15.30;99.90;;;;;;4909723;29;20256;-75
2023/10/08 07:52:15;;;;;;;13.05;2.20;;;15.30;99.90;;;;;;4899152;29;20244;-76
2023/10/08 07:54:41;;;;;;;8.50;2.20;;;15.30;99.90;;;;;;4896994;29;20203;-76
2023/10/08 07:57:11;;;;;;;10.60;2.60;;;15.30;99.90;;;;;;4895453;29;20192;-77
2023/10/08 07:59:41;;;;;;;13.38;2.25;;;15.30;99.90;;;;;;4897239;29;20200;-78
2023/10/08 08:02:09;;;;;;;7.85;2.38;;;15.40;99.90;;;;;;4895520;29;20185;-76
2023/10/08 08:04:37;;;;;;;13.60;2.78;;;15.50;99.90;;;;;;4898477;29;20203;-77
2023/10/08 08:07:04;;;;;;;12.73;2.10;;;15.50;99.90;;;;;;4900691;29;20751;-76
2023/10/08 08:09:30;;;;;;;10.02;2.15;;;15.50;99.90;;;;;;4899938;29;20733;-74
2023/10/08 08:11:57;;;;;;;10.60;2.03;;;15.60;99.90;;;;;;4900367;29;20249;-76
2023/10/08 08:14:24;;;;;;;9.48;1.88;;;15.60;99.90;;;;;;4899991;29;20282;-73
2023/10/08 08:16:51;;;;;;;11.20;2.45;;;15.80;99.90;;;;;;4899637;29;20232;-78
2023/10/08 08:19:24;;;;;;;5.65;1.90;;;15.90;99.90;;;;;;4898268;29;20248;-78
2023/10/08 08:21:52;;;;;;;10.82;2.17;;;15.90;99.90;;;;;;4899216;29;20190;-73
2023/10/08 08:24:28;;;;;;;10.20;1.88;;;16.00;99.90;;;;;;4898352;29;20693;-70
2023/10/08 08:27:11;;;;;;;10.43;2.75;;;16.00;99.90;;;;;;4895357;29;20243;-79
2023/10/08 08:29:44;;;;;;;11.88;2.40;;;16.10;99.90;;;;;;4898610;29;20196;-77
2023/10/08 08:32:15;;;;;;;10.65;2.08;;;16.10;99.90;;;;;;4898824;29;20637;-77
2023/10/08 08:34:43;;;;;;;7.85;1.77;;;16.20;99.90;;;;;;4887068;29;20211;-73
2023/10/08 08:37:11;;;;;;;12.40;2.15;;;16.20;99.90;;;;;;4898137;29;20263;-74
2023/10/08 08:39:39;;;;;;;18.63;2.75;;;16.20;99.90;;;;;;4912937;29;20289;-74
2023/10/08 08:42:05;;;;;;;9.45;1.80;;;16.20;99.90;;;;;;4898435;29;20189;-74
2023/10/08 08:44:32;;;;;;;13.75;2.40;;;16.20;99.90;;;;;;4881932;29;20193;-73
2023/10/08 08:47:04;;;;;;;8.48;2.00;;;16.30;99.90;;;;;;4897847;29;20312;-74
2023/10/08 08:49:33;;;;;;;12.00;2.22;;;16.30;99.90;;;;;;4898004;29;20248;-79
2023/10/08 08:52:00;;;;;;;14.25;2.17;;;16.30;99.90;;;;;;4912796;29;20665;-70
2023/10/08 08:54:30;;;;;;;9.23;2.17;;;16.40;99.90;;;;;;4912946;29;20199;-75
2023/10/08 08:56:59;;;;;;;11.93;2.40;;;16.50;99.90;;;;;;4911687;29;20192;-80
2023/10/08 08:59:26;;;;;;;9.18;2.00;;;16.50;99.90;;;;;;4892968;29;20196;-76
2023/10/08 09:01:54;;;;;;;10.75;2.17;;;16.60;99.90;;;;;;4898216;29;20180;-77
2023/10/08 09:04:31;;;;;;;12.02;2.20;;;16.60;99.90;;;;;;4912937;29;20221;-77
2023/10/08 09:06:59;;;;;;;9.85;1.90;;;16.70;99.90;;;;;;4896791;29;20689;-77
2023/10/08 09:09:32;;;;;;;12.88;2.03;;;16.70;99.90;;;;;;4898484;29;20280;-70
2023/10/08 09:11:59;;;;;;;11.88;2.47;;;16.70;99.90;;;;;;4898544;29;20249;-76
2023/10/08 09:14:26;;;;;;;10.38;2.45;;;16.80;99.90;;;;;;4898245;29;20196;-77
2023/10/08 09:16:56;;;;;;;12.23;1.95;;;16.80;99.90;;;;;;4861206;29;1101786;-79
2023/10/08 09:19:25;;;;;;;12.07;2.65;;;16.80;99.90;;;;;;4898437;29;20189;-77
2023/10/08 09:22:02;;;;;;;12.95;2.28;;;16.80;99.90;;;;;;4899674;29;20283;-77
2023/10/08 09:24:28;;;;;;;10.73;2.03;;;16.70;99.90;;;;;;4897805;29;21126;-77
2023/10/08 09:26:55;;;;;;;12.55;2.00;;;16.70;99.90;;;;;;4898673;29;20685;-72
2023/10/08 09:29:25;;;;;;;9.82;2.10;;;16.70;99.90;;;;;;4897666;29;20199;-78
2023/10/08 09:31:56;;;;;;;12.93;2.30;;;16.70;99.90;;;;;;4898843;29;20193;-76
2023/10/08 09:34:27;;;;;;;11.85;2.58;;;16.80;99.90;;;;;;4898818;29;20657;-76
2023/10/08 09:36:55;;;;;;;11.43;2.33;;;16.90;99.90;;;;;;4898798;29;20208;-76
2023/10/08 09:39:26;;;;;;;10.65;2.17;;;16.90;99.90;;;;;;4898884;29;20200;-77
2023/10/08 09:41:56;;;;;;;10.93;2.60;;;16.90;99.90;;;;;;4899409;29;20652;-79
2023/10/08 09:44:24;;;;;;;8.93;1.83;;;16.90;99.90;;;;;;4899255;29;20185;-77
2023/10/08 09:46:59;;;;;;;8.48;2.00;;;17.00;99.90;;;;;;4899149;29;20221;-80
2023/10/08 09:49:39;;;;;;;13.52;3.13;;;17.00;99.90;;;;;;4897279;29;20408;-75
2023/10/08 09:52:07;;;;;;;14.10;2.85;;;17.10;99.90;;;;;;4898840;29;20173;-77
2023/10/08 09:55:03;;;;;;;13.85;2.30;;;17.20;99.90;;;;;;4899692;29;20201;-79
2023/10/08 09:57:29;;;;;;;24.73;8.88;;;17.30;99.90;;;;;;4897503;29;20558;-80
2023/10/08 09:59:57;;;;;;;53.78;32.92;;;17.40;99.90;;;;;;4892179;29;20196;-77
2023/10/08 10:02:27;;;;;;;11.27;2.30;;;17.50;99.90;;;;;;4897243;29;20193;-74
2023/10/08 10:04:55;;;;;;;9.02;2.90;;;17.60;99.90;;;;;;4899557;29;20207;-79
2023/10/08 10:07:22;;;;;;;11.40;3.05;;;17.60;99.90;;;;;;4898575;29;20220;-76
2023/10/08 10:09:53;;;;;;;8.85;2.38;;;17.70;99.90;;;;;;4913130;29;20224;-77
2023/10/08 10:12:25;;;;;;;20.40;8.13;;;17.70;99.90;;;;;;4898429;29;20513;-78
2023/10/08 10:14:57;;;;;;;15.93;4.90;;;17.70;99.90;;;;;;4899382;29;20185;-78
2023/10/08 10:17:28;;;;;;;12.85;2.78;;;17.80;99.90;;;;;;4882397;29;20224;-76
2023/10/08 10:19:54;;;;;;;16.88;2.78;;;17.80;99.90;;;;;;4898548;29;20192;-77
2023/10/08 10:22:31;;;;;;;10.82;2.58;;;17.80;99.90;;;;;;4898305;29;20280;-79
2023/10/08 10:24:57;;;;;;;13.38;3.33;;;17.80;99.90;;;;;;4887298;29;20187;-79
2023/10/08 10:27:24;;;;;;;14.25;2.88;;;17.80;99.90;;;;;;4898234;29;20212;-77
2023/10/08 10:29:50;;;;;;;12.23;2.08;;;17.90;99.90;;;;;;4889384;29;20272;-78
2023/10/08 10:32:16;;;;;;;10.38;2.78;;;17.90;99.90;;;;;;4907232;29;20657;-73
2023/10/08 10:34:44;;;;;;;8.82;2.35;;;18.00;99.90;;;;;;4900075;29;20228;-78
2023/10/08 10:37:19;;;;;;;8.73;2.42;;;18.00;99.90;;;;;;4901847;29;20284;-78
2023/10/08 10:39:58;;;;;;;12.80;2.15;;;18.00;99.90;;;;;;4917867;29;20188;-78
2023/10/08 10:42:26;;;;;;;9.73;1.90;;;18.10;99.90;;;;;;4900624;29;20207;-78
2023/10/08 10:44:55;;;;;;;10.57;2.42;;;18.10;99.90;;;;;;4897810;29;20299;-80
2023/10/08 10:52:31;;;;;;;7.50;2.22;;;18.30;99.90;;;;;;4898166;29;20224;-78
2023/10/08 10:55:20;;;;;;;6.97;2.00;;;18.30;99.90;;;;;;4899139;29;20223;-77
2023/10/08 10:58:11;;;;;;;10.38;2.55;;;18.30;99.90;;;;;;4898340;29;20264;-78
2023/10/08 11:03:17;;;;;;;9.02;2.50;;;18.20;99.90;;;;;;4897863;29;20189;-79
2023/10/08 11:05:48;;;;;;;9.30;2.40;;;18.10;99.90;;;;;;4893652;29;20219;-78
2023/10/08 11:08:18;;;;;;;13.38;2.90;;;18.10;99.90;;;;;;4895312;29;20196;-76
2023/10/08 11:11:27;;;;;;;11.35;2.53;;;18.00;99.90;;;;;;4898040;29;20197;-80
2023/10/08 11:13:38;;;;;;;16.23;2.35;;;18.00;99.90;;;;;;4900520;29;20219;-78
2023/10/08 11:16:08;;;;;;;10.13;2.95;;;18.00;99.90;;;;;;4897542;29;20665;-75
2023/10/08 11:18:37;;;;;;;12.48;2.17;;;18.00;99.90;;;;;;4899322;29;20204;-77
2023/10/08 11:21:15;;;;;;;9.57;2.03;;;18.10;99.90;;;;;;4899160;29;20199;-76
2023/10/08 11:23:55;;;;;;;14.98;2.55;;;18.10;99.90;;;;;;4900278;29;20275;-78
2023/10/08 11:26:32;;;;;;;20.25;3.90;;;18.20;99.90;;;;;;4897539;29;20224;-78
2023/10/08 11:29:05;;;;;;;12.10;2.70;;;18.30;99.90;;;;;;4897842;29;20294;-71
2023/10/08 11:31:34;;;;;;;10.52;1.90;;;18.40;99.90;;;;;;4898003;29;20211;-79
2023/10/08 11:34:08;;;;;;;9.52;1.85;;;18.40;99.90;;;;;;4896949;29;20196;-77
2023/10/08 11:36:48;;;;;;;9.77;1.95;;;18.40;99.90;;;;;;4897288;29;20200;-78
2023/10/08 11:39:30;;;;;;;11.02;1.90;;;18.50;99.90;;;;;;4897013;29;20283;-75
2023/10/08 11:41:56;;;;;;;13.95;2.15;;;18.60;99.90;;;;;;4896623;29;20200;-77
2023/10/08 11:44:23;;;;;;;13.23;2.90;;;18.70;99.90;;;;;;4895087;29;20204;-78
2023/10/08 11:46:52;;;;;;;10.27;2.00;;;18.80;99.90;;;;;;4896556;29;20216;-77
2023/10/08 11:49:25;;;;;;;8.98;2.65;;;18.80;99.90;;;;;;4884891;29;20200;-80
2023/10/08 11:51:57;;;;;;;13.70;3.05;;;18.90;99.90;;;;;;4896629;29;20220;-75
2023/10/08 11:54:23;;;;;;;12.20;2.00;;;18.90;99.90;;;;;;4897101;29;20236;-76
2023/10/08 11:56:50;;;;;;;9.88;2.25;;;18.90;99.90;;;;;;4910419;29;20224;-78
2023/10/08 11:59:18;;;;;;;14.23;2.90;;;18.90;99.90;;;;;;4896793;29;20192;-76
2023/10/08 12:01:46;;;;;;;8.77;2.10;;;18.90;99.90;;;;;;4896729;29;20193;-76
2023/10/08 12:04:16;;;;;;;13.73;2.63;;;18.90;99.90;;;;;;4911487;29;20212;-78
2023/10/08 12:06:52;;;;;;;14.32;2.90;;;19.00;99.90;;;;;;4896279;29;20224;-75
2023/10/08 12:09:21;;;;;;;9.13;2.00;;;19.00;99.90;;;;;;4896120;29;20184;-76
2023/10/08 12:11:48;;;;;;;11.32;1.83;;;19.10;99.90;;;;;;4896268;29;20650;-77
2023/10/08 12:14:14;;;;;;;8.27;2.33;;;19.10;99.90;;;;;;4895604;29;20195;-77
2023/10/08 12:16:41;;;;;;;16.38;5.65;;;19.10;99.90;;;;;;4896228;29;20247;-77
2023/10/08 12:19:16;;;;;;;10.98;2.20;;;19.20;99.90;;;;;;4895897;29;20646;-77
2023/10/08 12:21:46;;;;;;;8.27;2.20;;;19.20;99.90;;;;;;4883576;29;20195;-79
2023/10/08 12:24:12;;;;;;;8.82;1.90;;;19.20;99.90;;;;;;4896058;29;20184;-77
2023/10/08 12:26:45;;;;;;;12.25;2.35;;;19.20;99.90;;;;;;4896164;29;20219;-77
2023/10/08 12:29:14;;;;;;;6.43;2.00;;;19.30;99.90;;;;;;4896108;29;20191;-73
2023/10/08 12:31:40;;;;;;;10.43;2.00;;;19.20;99.90;;;;;;4896753;29;20204;-78
2023/10/08 12:34:11;;;;;;;6.45;1.92;;;19.20;99.90;;;;;;4897302;29;20200;-77
2023/10/08 12:36:37;;;;;;;10.55;1.83;;;19.10;99.90;;;;;;4881013;29;20241;-78
2023/10/08 12:39:08;;;;;;;9.30;2.15;;;19.10;99.90;;;;;;4894559;29;20192;-76
2023/10/08 12:41:38;;;;;;;9.63;2.15;;;19.10;99.90;;;;;;4896887;29;20185;-77
2023/10/08 12:44:07;;;;;;;20.80;7.82;;;19.00;99.90;;;;;;4896164;29;20191;-77
2023/10/08 12:46:34;;;;;;;13.73;4.10;;;19.00;99.70;;;;;;4894987;29;20208;-78
2023/10/08 12:49:01;;;;;;;8.82;2.67;;;19.00;99.70;;;;;;4895871;29;20587;-76
2023/10/08 12:51:31;;;;;;;10.70;2.00;;;18.90;99.70;;;;;;4899870;29;20192;-77
2023/10/08 12:53:59;;;;;;;9.70;2.55;;;18.80;99.80;;;;;;4899366;29;20188;-76
2023/10/08 12:56:35;;;;;;;12.50;2.42;;;18.90;99.60;;;;;;4900275;29;20193;-78
2023/10/08 12:59:06;;;;;;;8.68;1.95;;;18.80;99.30;;;;;;4900025;29;20192;-75
2023/10/08 13:01:32;;;;;;;12.57;1.65;;;18.80;99.10;;;;;;4899237;29;20192;-77
2023/10/08 13:04:01;;;;;;;10.02;2.20;;;18.70;99.00;;;;;;4899920;29;20185;-74
2023/10/08 13:06:31;;;;;;;7.20;1.80;;;18.70;99.20;;;;;;4899014;29;20212;-77
2023/10/08 13:08:58;;;;;;;17.13;2.15;;;18.70;99.30;;;;;;4900146;29;20740;-77
2023/10/08 13:11:26;;;;;;;8.90;1.88;;;18.70;99.20;;;;;;4903043;29;20195;-74
2023/10/08 13:13:56;;;;;;;10.02;2.10;;;18.70;99.40;;;;;;4900776;29;20204;-75
2023/10/08 13:16:23;;;;;;;8.55;1.95;;;18.80;99.40;;;;;;4908022;29;20193;-78
2023/10/08 13:18:50;;;;;;;13.13;3.05;;;18.80;99.50;;;;;;4901331;29;20192;-76
2023/10/08 13:21:19;;;;;;;8.98;2.10;;;18.90;99.60;;;;;;4913798;29;20196;-74
2023/10/08 13:23:46;;;;;;;8.38;3.30;;;19.00;99.70;;;;;;4899531;29;20705;-76
2023/10/08 13:26:16;;;;;;;14.48;4.13;;;19.00;99.70;;;;;;4896302;29;20220;-77
2023/10/08 13:28:44;;;;;;;13.65;4.03;;;19.00;99.40;;;;;;4899247;29;20279;-78
2023/10/08 13:31:10;;;;;;;6.47;1.98;;;19.10;99.50;;;;;;4899042;29;20272;-76
2023/10/08 13:33:39;;;;;;;11.10;1.95;;;19.10;99.30;;;;;;4899327;29;20192;-76
2023/10/08 13:36:09;;;;;;;10.52;2.40;;;19.20;99.30;;;;;;4899360;29;20181;-74
2023/10/08 13:38:40;;;;;;;7.20;2.08;;;19.30;99.10;;;;;;4899781;29;20185;-75
2023/10/08 13:41:16;;;;;;;7.03;2.10;;;19.30;98.40;;;;;;4898744;29;20202;-77
2023/10/08 13:43:46;;;;;;;11.02;3.17;;;19.40;98.60;;;;;;4897252;29;20192;-76
2023/10/08 13:46:17;;;;;;;9.65;2.00;;;19.50;98.50;;;;;;4898874;29;20216;-75
2023/10/08 13:48:48;;;;;;;6.75;2.05;;;19.50;98.30;;;;;;4897651;29;20209;-74
2023/10/08 13:51:28;;;;;;;9.82;2.30;;;19.50;98.30;;;;;;4899241;29;20236;-76
2023/10/08 13:53:59;;;;;;;15.27;2.00;;;19.40;98.10;;;;;;4897247;29;20199;-76
2023/10/08 13:56:26;;;;;;;9.10;1.98;;;19.40;98.20;;;;;;4899082;29;20193;-76
2023/10/08 13:59:03;;;;;;;8.40;2.17;;;19.30;98.30;;;;;;4898621;29;20185;-75
2023/10/08 14:01:33;;;;;;;12.00;2.42;;;19.20;98.40;;;;;;4897409;29;20208;-76
2023/10/08 14:04:06;;;;;;;11.10;3.10;;;19.20;99.10;;;;;;4898657;29;20212;-76
2023/10/08 14:06:34;;;;;;;11.93;2.53;;;19.10;99.00;;;;;;4881962;29;20221;-76
2023/10/08 14:09:01;;;;;;;12.45;2.40;;;19.10;99.00;;;;;;4898099;29;20192;-77
2023/10/08 14:11:30;;;;;;;9.43;2.08;;;19.10;99.10;;;;;;4898235;29;20196;-76